createdAt,value
2019-03-08T00:01:26.990Z,1.00
2019-03-08T00:04:08.441Z,1.32
2019-03-08T00:06:49.700Z,1.60
2019-03-08T00:09:29.538Z,2.05
2019-03-08T00:12:09.250Z,2.25
2019-03-08T00:14:50.134Z,3.75
2019-03-08T00:17:29.860Z,2.60
2019-03-08T00:20:10.150Z,0.93
2019-03-08T00:22:49.859Z,2.40
2019-03-08T00:25:29.929Z,3.45
2019-03-08T00:28:09.628Z,3.42
2019-03-08T00:30:50.558Z,3.52
2019-03-08T00:33:30.199Z,1.80
2019-03-08T00:36:10.012Z,1.65
2019-03-08T00:38:49.738Z,1.52
2019-03-08T00:41:29.462Z,3.60
2019-03-08T00:44:10.330Z,3.75
2019-03-08T00:46:50.133Z,2.12
2019-03-08T00:49:29.813Z,3.15
2019-03-08T00:52:09.533Z,2.98
2019-03-08T00:54:49.452Z,1.62
2019-03-08T00:57:29.095Z,3.35
2019-03-08T01:00:14.028Z,3.40
2019-03-08T01:02:53.948Z,2.22
2019-03-08T01:05:33.657Z,4.53
2019-03-08T01:08:13.452Z,1.67
2019-03-08T01:10:53.643Z,2.25
2019-03-08T01:13:33.453Z,3.27
2019-03-08T01:16:13.346Z,2.00
2019-03-08T01:18:53.210Z,5.50
2019-03-08T01:21:33.057Z,3.15
2019-03-08T01:24:12.840Z,1.92
2019-03-08T01:26:52.592Z,2.30
2019-03-08T01:29:32.322Z,1.80
2019-03-08T01:32:12.418Z,3.15
2019-03-08T01:34:52.191Z,1.57
2019-03-08T01:37:31.897Z,1.82
2019-03-08T01:40:11.829Z,3.30
2019-03-08T01:42:51.845Z,3.30
2019-03-08T01:45:31.851Z,2.25
2019-03-08T01:48:11.605Z,2.40
2019-03-08T01:50:55.399Z,3.02
2019-03-08T01:53:35.049Z,2.40
2019-03-08T01:56:14.826Z,1.70
2019-03-08T01:58:54.551Z,1.67
2019-03-08T02:01:34.196Z,2.02
2019-03-08T02:04:14.109Z,2.60
2019-03-08T02:06:53.877Z,1.70
2019-03-08T02:09:33.661Z,2.45
2019-03-08T02:12:13.625Z,1.95
2019-03-08T02:14:53.333Z,3.27
2019-03-08T02:17:34.205Z,3.67
2019-03-08T02:20:17.109Z,3.60
2019-03-08T02:22:56.955Z,3.02
2019-03-08T02:25:36.749Z,1.77
2019-03-08T02:28:16.937Z,2.50
2019-03-08T02:30:56.866Z,1.98
2019-03-08T02:33:36.689Z,3.98
2019-03-08T02:36:17.632Z,2.62
2019-03-08T02:38:57.378Z,2.58
2019-03-08T02:41:39.236Z,2.30
2019-03-08T02:44:19.392Z,2.02
2019-03-08T02:46:59.224Z,3.85
2019-03-08T02:49:39.008Z,3.22
2019-03-08T02:52:18.880Z,2.20
2019-03-08T02:54:58.679Z,2.00
2019-03-08T02:57:38.366Z,2.42
2019-03-08T03:00:19.829Z,1.95
2019-03-08T03:02:59.555Z,1.62
2019-03-08T03:05:39.274Z,2.25
2019-03-08T03:08:19.312Z,2.22
2019-03-08T03:10:58.993Z,1.67
2019-03-08T03:13:38.750Z,2.98
2019-03-08T03:16:18.531Z,3.30
2019-03-08T03:18:58.347Z,1.77
2019-03-08T03:21:38.051Z,2.52
2019-03-08T03:24:17.989Z,1.50
2019-03-08T03:26:57.681Z,2.52
2019-03-08T03:29:47.154Z,1.95
2019-03-08T03:32:33.686Z,2.17
2019-03-08T03:35:13.458Z,3.98
2019-03-08T03:37:53.258Z,1.20
2019-03-08T03:40:32.891Z,3.50
2019-03-08T03:43:12.699Z,2.67
2019-03-08T03:45:52.517Z,2.02
2019-03-08T03:48:32.298Z,3.45
2019-03-08T03:51:12.246Z,2.22
2019-03-08T03:53:52.057Z,1.77
2019-03-08T03:56:32.053Z,5.25
2019-03-08T03:59:12.641Z,4.20
2019-03-08T04:01:53.875Z,2.60
2019-03-08T04:04:33.217Z,2.30
2019-03-08T04:07:12.880Z,2.72
2019-03-08T04:09:52.593Z,2.90
2019-03-08T04:12:32.347Z,2.77
2019-03-08T04:15:14.468Z,4.10
2019-03-08T04:17:54.232Z,4.25
2019-03-08T04:20:33.961Z,0.95
2019-03-08T04:23:14.018Z,2.58
2019-03-08T04:25:53.653Z,2.55
2019-03-08T04:28:34.034Z,3.25
2019-03-08T04:31:14.985Z,2.60
2019-03-08T04:33:54.855Z,2.70
2019-03-08T04:36:34.111Z,1.87
2019-03-08T04:39:13.748Z,1.90
2019-03-08T04:41:53.401Z,1.17
2019-03-08T04:44:33.403Z,2.00
2019-03-08T04:47:18.279Z,1.87
2019-03-08T04:49:58.452Z,1.77
2019-03-08T04:52:38.368Z,1.77
2019-03-08T04:55:18.364Z,2.52
2019-03-08T04:57:59.856Z,2.12
2019-03-08T05:00:39.777Z,1.00
2019-03-08T05:03:27.109Z,1.82
2019-03-08T05:06:07.026Z,3.67
2019-03-08T05:08:47.828Z,1.20
2019-03-08T05:11:27.661Z,2.27
2019-03-08T05:14:07.387Z,1.02
2019-03-08T05:16:47.049Z,0.90
2019-03-08T05:19:27.124Z,1.40
2019-03-08T05:22:06.750Z,2.02
2019-03-08T05:24:46.347Z,1.75
2019-03-08T05:27:26.018Z,1.87
2019-03-08T05:30:06.800Z,2.12
2019-03-08T05:32:46.431Z,2.33
2019-03-08T05:35:26.272Z,2.25
2019-03-08T05:38:06.155Z,2.35
2019-03-08T05:40:46.261Z,1.42
2019-03-08T05:43:26.062Z,2.60
2019-03-08T05:46:05.977Z,2.08
2019-03-08T05:48:45.850Z,8.80
2019-03-08T05:51:25.824Z,0.90
2019-03-08T05:54:07.203Z,2.33
2019-03-08T05:56:47.240Z,1.92
2019-03-08T05:59:26.957Z,4.92
2019-03-08T06:02:07.238Z,2.92
2019-03-08T06:04:50.725Z,4.15
2019-03-08T06:07:30.583Z,1.22
2019-03-08T06:10:37.054Z,1.60
2019-03-08T06:13:16.742Z,2.30
2019-03-08T06:15:56.625Z,1.37
2019-03-08T06:18:36.390Z,3.30
2019-03-08T06:21:17.742Z,1.72
2019-03-08T06:23:57.419Z,2.70
2019-03-08T06:26:37.207Z,1.47
2019-03-08T06:29:18.279Z,2.12
2019-03-08T06:31:59.267Z,1.27
2019-03-08T06:34:39.157Z,2.60
2019-03-08T06:37:19.146Z,1.02
2019-03-08T06:40:00.655Z,5.12
2019-03-08T06:42:40.504Z,3.10
2019-03-08T06:45:20.309Z,1.75
2019-03-08T06:48:00.019Z,2.65
2019-03-08T06:50:39.717Z,3.30
2019-03-08T06:53:19.510Z,1.27
2019-03-08T06:55:59.623Z,3.77
2019-03-08T06:58:45.425Z,2.80
2019-03-08T07:01:28.144Z,2.05
2019-03-08T07:04:07.971Z,1.30
2019-03-08T07:06:47.726Z,4.25
2019-03-08T07:09:27.451Z,1.92
2019-03-08T07:12:07.139Z,3.08
2019-03-08T07:14:46.828Z,2.25
2019-03-08T07:17:29.679Z,2.05
2019-03-08T07:20:32.842Z,3.70
2019-03-08T07:23:32.301Z,5.08
2019-03-08T07:26:29.762Z,2.20
2019-03-08T07:29:26.637Z,4.45
2019-03-08T07:32:13.386Z,3.62
2019-03-08T07:35:21.572Z,2.15
2019-03-08T07:38:09.456Z,1.47
2019-03-08T07:41:17.037Z,4.60
2019-03-08T07:44:30.929Z,1.22
2019-03-08T07:47:26.109Z,2.45
2019-03-08T07:50:16.608Z,2.87
2019-03-08T07:53:04.296Z,2.57
2019-03-08T07:55:50.270Z,2.40
2019-03-08T07:58:47.547Z,1.17
2019-03-08T08:01:39.049Z,2.42
2019-03-08T08:04:36.651Z,3.12
2019-03-08T08:07:29.319Z,4.60
2019-03-08T08:10:19.219Z,2.98
2019-03-08T08:13:20.792Z,2.77
2019-03-08T08:16:22.748Z,4.85
2019-03-08T08:19:08.808Z,4.85
2019-03-08T08:22:04.345Z,2.37
2019-03-08T08:25:05.836Z,3.70
2019-03-08T08:28:07.772Z,2.60
2019-03-08T08:31:03.462Z,0.55
2019-03-08T08:34:21.898Z,3.35
2019-03-08T08:37:10.964Z,5.75
2019-03-08T08:40:27.799Z,3.08
2019-03-08T08:43:20.346Z,5.45
2019-03-08T08:46:17.749Z,2.40
2019-03-08T08:49:10.595Z,1.55
2019-03-08T08:52:04.675Z,1.00
2019-03-08T08:55:06.423Z,2.50
2019-03-08T08:58:03.677Z,2.98
2019-03-08T09:00:56.304Z,3.57
2019-03-08T09:03:44.939Z,1.97
2019-03-08T09:06:36.579Z,1.77
2019-03-08T09:09:22.672Z,3.40
2019-03-08T09:12:28.137Z,3.50
2019-03-08T09:15:20.459Z,3.92
2019-03-08T09:18:06.861Z,4.10
2019-03-08T09:21:04.381Z,2.95
2019-03-08T09:23:49.064Z,2.33
2019-03-08T09:26:46.584Z,2.30
2019-03-08T09:29:43.973Z,3.60
2019-03-08T09:32:30.035Z,2.90
2019-03-08T09:35:26.853Z,2.52
2019-03-08T09:38:32.606Z,1.60
2019-03-08T09:41:41.355Z,3.47
2019-03-08T09:44:30.376Z,2.80
2019-03-08T09:47:31.888Z,5.17
2019-03-08T09:50:26.302Z,1.55
2019-03-08T09:53:14.036Z,1.95
2019-03-08T09:56:10.187Z,3.08
2019-03-08T09:59:21.311Z,2.22
2019-03-08T10:02:20.494Z,3.00
2019-03-08T10:05:18.109Z,3.17
2019-03-08T10:08:20.181Z,3.10
2019-03-08T10:11:11.293Z,5.85
2019-03-08T10:14:12.693Z,2.90
2019-03-08T10:17:07.949Z,6.03
2019-03-08T10:20:06.431Z,14.15
2019-03-08T10:22:56.879Z,7.80
2019-03-08T10:25:47.318Z,5.00
2019-03-08T10:28:36.101Z,2.47
2019-03-08T10:31:30.060Z,4.22
2019-03-08T10:34:28.747Z,6.70
2019-03-08T10:37:20.087Z,3.87
2019-03-08T10:40:24.904Z,1.47
2019-03-08T10:43:14.957Z,2.58
2019-03-08T10:46:15.639Z,6.33
2019-03-08T10:49:18.901Z,5.37
2019-03-08T10:52:17.257Z,8.00
2019-03-08T10:55:09.196Z,1.62
2019-03-08T10:58:06.715Z,3.27
2019-03-08T11:01:20.543Z,2.70
2019-03-08T11:04:23.271Z,3.47
2019-03-08T11:07:10.586Z,3.33
2019-03-08T11:10:09.603Z,2.00
2019-03-08T11:12:58.994Z,2.95
2019-03-08T11:15:56.466Z,2.98
2019-03-08T11:18:55.259Z,3.80
2019-03-08T11:21:44.325Z,3.10
2019-03-08T11:24:35.216Z,5.72
2019-03-08T11:27:37.612Z,5.83
2019-03-08T11:30:35.662Z,3.08
2019-03-08T11:33:32.994Z,3.20
2019-03-08T11:36:19.227Z,4.08
2019-03-08T11:39:08.884Z,2.80
2019-03-08T11:42:00.960Z,3.12
2019-03-08T11:45:06.762Z,3.98
2019-03-08T11:48:06.547Z,5.25
2019-03-08T11:51:00.270Z,3.58
2019-03-08T11:53:56.271Z,3.90
2019-03-08T11:56:56.178Z,6.25
2019-03-08T12:00:02.487Z,1.95
2019-03-08T12:03:08.955Z,2.50
2019-03-08T12:06:08.131Z,3.37
2019-03-08T12:09:09.996Z,3.60
2019-03-08T12:12:09.383Z,1.67
2019-03-08T12:15:08.678Z,3.12
2019-03-08T12:18:10.472Z,2.52
2019-03-08T12:21:07.926Z,1.65
2019-03-08T12:24:05.322Z,5.08
2019-03-08T12:26:54.713Z,2.60
2019-03-08T12:29:53.017Z,2.40
2019-03-08T12:32:43.635Z,2.70
2019-03-08T12:35:38.166Z,3.52
2019-03-08T12:38:37.003Z,3.87
2019-03-08T12:41:22.272Z,2.50
2019-03-08T12:44:22.360Z,1.95
2019-03-08T12:47:13.423Z,3.25
2019-03-08T12:50:00.294Z,4.10
2019-03-08T12:52:57.705Z,2.40
2019-03-08T12:55:58.268Z,3.33
2019-03-08T12:59:15.118Z,3.25
2019-03-08T13:02:15.159Z,1.83
2019-03-08T13:05:24.982Z,4.28
2019-03-08T13:08:23.264Z,2.25
2019-03-08T13:11:06.706Z,1.85
2019-03-08T13:13:46.492Z,1.57
2019-03-08T13:16:26.203Z,1.50
2019-03-08T13:19:06.242Z,3.45
2019-03-08T13:21:46.005Z,2.83
2019-03-08T13:24:29.035Z,2.60
2019-03-08T13:27:08.884Z,1.80
2019-03-08T13:29:48.598Z,4.60
2019-03-08T13:32:28.475Z,1.00
2019-03-08T13:35:09.667Z,1.92
2019-03-08T13:37:49.471Z,1.02
2019-03-08T13:40:29.171Z,1.75
2019-03-08T13:43:08.931Z,1.47
2019-03-08T13:45:48.440Z,2.70
2019-03-08T13:48:28.210Z,2.58
2019-03-08T13:51:07.821Z,2.00
2019-03-08T13:53:47.497Z,1.60
2019-03-08T13:56:27.163Z,2.83
2019-03-08T13:59:06.577Z,2.20
2019-03-08T14:01:45.929Z,2.90
2019-03-08T14:04:25.964Z,2.92
2019-03-08T14:07:05.631Z,3.17
2019-03-08T14:09:45.342Z,2.27
2019-03-08T14:12:25.190Z,4.17
2019-03-08T14:15:07.434Z,1.52
2019-03-08T14:17:47.540Z,2.67
2019-03-08T14:20:27.109Z,3.30
2019-03-08T14:23:07.044Z,1.47
2019-03-08T14:25:46.618Z,2.57
2019-03-08T14:28:26.285Z,2.67
2019-03-08T14:31:13.981Z,3.27
2019-03-08T14:33:53.702Z,4.53
2019-03-08T14:36:33.339Z,1.67
2019-03-08T14:39:13.419Z,2.37
2019-03-08T14:42:19.303Z,2.00
2019-03-08T14:45:17.711Z,1.70
2019-03-08T14:47:59.288Z,2.95
2019-03-08T14:50:38.993Z,2.67
2019-03-08T14:53:18.662Z,3.55
2019-03-08T14:55:59.150Z,3.40
2019-03-08T14:58:40.435Z,1.75
2019-03-08T15:01:21.419Z,1.45
2019-03-08T15:04:00.797Z,2.37
2019-03-08T15:06:42.010Z,3.33
2019-03-08T15:09:22.056Z,3.65
2019-03-08T15:12:01.692Z,1.40
2019-03-08T15:14:41.443Z,1.75
2019-03-08T15:17:21.048Z,5.37
2019-03-08T15:20:00.755Z,3.72
2019-03-08T15:22:40.373Z,3.12
2019-03-08T15:25:20.058Z,3.98
2019-03-08T15:27:59.764Z,6.10
2019-03-08T15:30:39.573Z,6.00
2019-03-08T15:33:19.249Z,4.00
2019-03-08T15:35:58.877Z,4.12
2019-03-08T15:38:38.524Z,4.05
2019-03-08T15:41:21.444Z,7.60
2019-03-08T15:43:59.779Z,4.25
2019-03-08T15:46:39.692Z,5.12
2019-03-08T15:49:19.405Z,6.87
2019-03-08T15:51:59.914Z,5.05
2019-03-08T15:54:40.871Z,5.37
2019-03-08T15:57:20.646Z,4.67
2019-03-08T16:00:00.402Z,8.85
2019-03-08T16:02:44.521Z,7.62
2019-03-08T16:05:28.180Z,7.17
2019-03-08T16:08:05.779Z,6.70
2019-03-08T16:10:45.520Z,7.85
2019-03-08T16:13:25.246Z,4.60
2019-03-08T16:16:04.989Z,5.78
2019-03-08T16:18:47.983Z,8.08
2019-03-08T16:21:26.202Z,9.65
2019-03-08T16:24:06.052Z,9.88
2019-03-08T16:26:45.633Z,8.25
2019-03-08T16:29:26.604Z,7.30
2019-03-08T16:32:11.596Z,8.03
2019-03-08T16:34:51.036Z,5.50
2019-03-08T16:37:50.943Z,5.42
2019-03-08T16:40:48.124Z,8.20
2019-03-08T16:43:34.865Z,7.30
2019-03-08T16:46:20.996Z,5.15
2019-03-08T16:49:20.060Z,9.10
2019-03-08T16:52:12.790Z,8.00
2019-03-08T16:55:22.155Z,10.43
2019-03-08T16:58:32.718Z,11.30
2019-03-08T17:01:37.372Z,13.43
2019-03-08T17:04:25.887Z,7.80
2019-03-08T17:07:12.086Z,12.43
2019-03-08T17:10:11.249Z,13.28
2019-03-08T17:12:59.872Z,9.08
2019-03-08T17:15:59.452Z,10.82
2019-03-08T17:18:47.197Z,9.98
2019-03-08T17:21:58.400Z,9.45
2019-03-08T17:24:56.132Z,8.25
2019-03-08T17:27:50.006Z,8.55
2019-03-08T17:30:54.451Z,8.05
2019-03-08T17:33:51.970Z,10.58
2019-03-08T17:36:45.623Z,8.63
2019-03-08T17:39:41.563Z,6.80
2019-03-08T17:42:47.747Z,8.13
2019-03-08T17:45:49.496Z,7.58
2019-03-08T17:48:46.293Z,8.63
2019-03-08T17:51:41.355Z,9.68
2019-03-08T17:54:38.618Z,9.03
2019-03-08T17:57:28.003Z,6.08
2019-03-08T18:00:33.860Z,10.72
2019-03-08T18:03:55.654Z,9.28
2019-03-08T18:06:58.780Z,11.75
2019-03-08T18:10:13.684Z,12.35
2019-03-08T18:13:16.883Z,13.80
2019-03-08T18:16:28.847Z,12.23
2019-03-08T18:19:43.426Z,13.62
2019-03-08T18:22:47.113Z,11.25
2019-03-08T18:26:05.042Z,11.35
2019-03-08T18:29:19.726Z,10.55
2019-03-08T18:32:22.772Z,15.93
2019-03-08T18:35:30.968Z,10.95
2019-03-08T18:38:45.158Z,9.90
2019-03-08T18:42:03.471Z,11.57
2019-03-08T18:45:06.707Z,11.45
2019-03-08T18:48:24.282Z,12.33
2019-03-08T18:51:32.331Z,12.35
2019-03-08T18:54:48.328Z,11.45
2019-03-08T18:58:14.291Z,12.70
2019-03-08T19:01:33.916Z,13.08
2019-03-08T19:04:42.234Z,15.63
2019-03-08T19:07:57.807Z,16.57
2019-03-08T19:11:11.326Z,16.25
2019-03-08T19:14:19.451Z,10.75
2019-03-08T19:17:34.350Z,12.03
2019-03-08T19:20:49.531Z,14.43
2019-03-08T19:23:58.131Z,10.35
2019-03-08T19:27:20.187Z,12.70
2019-03-08T19:30:45.175Z,13.28
2019-03-08T19:34:16.063Z,17.82
2019-03-08T19:37:29.041Z,15.43
2019-03-08T19:40:42.757Z,16.02
2019-03-08T19:43:54.211Z,14.38
2019-03-08T19:47:15.082Z,13.55
2019-03-08T19:50:40.586Z,10.38
2019-03-08T19:53:54.267Z,12.15
2019-03-08T19:57:24.582Z,7.53
2019-03-08T20:00:38.615Z,10.20
2019-03-08T20:03:56.234Z,7.55
2019-03-08T20:07:00.157Z,7.05
2019-03-08T20:10:15.380Z,6.78
2019-03-08T20:13:37.794Z,6.87
2019-03-08T20:17:08.288Z,8.18
2019-03-08T20:20:22.302Z,7.85
2019-03-08T20:23:38.211Z,8.38
2019-03-08T20:26:51.427Z,12.55
2019-03-08T20:29:55.386Z,8.70
2019-03-08T20:33:04.647Z,8.78
2019-03-08T20:36:15.209Z,7.33
2019-03-08T20:39:31.368Z,9.13
2019-03-08T20:42:49.375Z,9.70
2019-03-08T20:45:52.159Z,8.98
2019-03-08T20:48:48.624Z,6.80
2019-03-08T20:51:45.792Z,6.08
2019-03-08T20:54:43.987Z,7.78
2019-03-08T20:57:39.948Z,8.15
2019-03-08T21:00:36.000Z,7.15
2019-03-08T21:03:32.067Z,6.15
2019-03-08T21:06:28.834Z,6.92
2019-03-08T21:09:24.947Z,8.05
2019-03-08T21:12:20.753Z,6.12
2019-03-08T21:15:25.429Z,7.45
2019-03-08T21:18:16.414Z,5.78
2019-03-08T21:21:12.338Z,7.10
2019-03-08T21:24:09.813Z,6.83
2019-03-08T21:27:06.027Z,7.85
2019-03-08T21:30:05.961Z,9.85
2019-03-08T21:33:02.401Z,5.45
2019-03-08T21:35:59.423Z,8.33
2019-03-08T21:38:55.846Z,7.33
2019-03-08T21:41:52.506Z,8.55
2019-03-08T21:44:49.158Z,7.33
2019-03-08T21:47:46.132Z,7.15
2019-03-08T21:50:43.144Z,6.60
2019-03-08T21:53:39.871Z,5.60
2019-03-08T21:56:36.771Z,5.28
2019-03-08T21:59:32.867Z,7.50
2019-03-08T22:02:29.021Z,8.38
2019-03-08T22:05:28.995Z,6.62
2019-03-08T22:08:25.529Z,7.78
2019-03-08T22:11:28.483Z,7.42
2019-03-08T22:14:24.216Z,5.70
2019-03-08T22:17:22.603Z,6.20
2019-03-08T22:20:19.259Z,6.00
2019-03-08T22:23:15.054Z,6.03
2019-03-08T22:26:10.822Z,7.42
2019-03-08T22:29:06.911Z,6.10
2019-03-08T22:32:02.767Z,8.80
2019-03-08T22:34:59.178Z,4.87
2019-03-08T22:37:56.897Z,5.58
2019-03-08T22:40:53.261Z,5.85
2019-03-08T22:43:49.051Z,7.58
2019-03-08T22:46:46.100Z,5.70
2019-03-08T22:49:43.789Z,4.70
2019-03-08T22:52:40.557Z,5.25
2019-03-08T22:55:38.250Z,7.03
2019-03-08T22:58:34.889Z,5.67
2019-03-08T23:01:50.815Z,7.50
2019-03-08T23:04:46.915Z,6.95
2019-03-08T23:07:43.762Z,6.42
2019-03-08T23:10:42.011Z,7.58
2019-03-08T23:13:39.093Z,6.72
2019-03-08T23:16:34.740Z,7.00
2019-03-08T23:19:31.630Z,7.25
2019-03-08T23:22:28.120Z,8.05
2019-03-08T23:25:24.166Z,6.17
2019-03-08T23:28:41.805Z,7.55
2019-03-08T23:31:53.172Z,6.20
2019-03-08T23:34:49.107Z,7.12
2019-03-08T23:37:46.704Z,5.33
2019-03-08T23:40:43.483Z,7.83
2019-03-08T23:43:39.433Z,6.62
2019-03-08T23:46:35.254Z,6.58
2019-03-08T23:49:31.104Z,6.25
2019-03-08T23:52:27.153Z,5.20
2019-03-08T23:55:23.665Z,5.50
2019-03-08T23:58:20.073Z,6.05
